createdAt,value
2016-10-29T00:00:40.182Z,13.62
2016-10-29T00:01:40.524Z,13.65
2016-10-29T00:02:40.219Z,13.67
2016-10-29T00:03:40.551Z,13.68
2016-10-29T00:04:40.272Z,13.62
2016-10-29T00:05:40.594Z,13.7
2016-10-29T00:06:40.615Z,13.7
2016-10-29T00:07:40.632Z,13.68
2016-10-29T00:08:40.651Z,13.68
2016-10-29T00:09:40.683Z,13.68
2016-10-29T00:10:40.694Z,13.75
2016-10-29T00:11:40.713Z,13.7
2016-10-29T00:12:41.055Z,13.72
2016-10-29T00:13:40.493Z,13.72
2016-10-29T00:14:40.453Z,13.71
2016-10-29T00:15:40.799Z,13.72
2016-10-29T00:16:40.807Z,13.65
2016-10-29T00:17:40.832Z,13.71
2016-10-29T00:18:40.851Z,13.72
2016-10-29T00:19:40.868Z,13.72
2016-10-29T00:20:40.570Z,13.68
2016-10-29T00:21:40.912Z,13.71
2016-10-29T00:22:40.936Z,13.75
2016-10-29T00:23:40.948Z,13.75
2016-10-29T00:24:41.280Z,13.77
2016-10-29T00:25:40.670Z,13.75
2016-10-29T00:26:41.328Z,13.74
2016-10-29T00:27:40.709Z,13.79
2016-10-29T00:28:41.046Z,13.81
2016-10-29T00:29:41.117Z,13.78
2016-10-29T00:30:40.769Z,13.87
2016-10-29T00:31:41.420Z,13.89
2016-10-29T00:32:41.180Z,13.83
2016-10-29T00:33:40.829Z,13.87
2016-10-29T00:34:40.849Z,13.92
2016-10-29T00:35:40.864Z,13.86
2016-10-29T00:36:40.883Z,13.83
2016-10-29T00:37:41.227Z,13.75
2016-10-29T00:38:41.246Z,13.79
2016-10-29T00:39:41.265Z,13.79
2016-10-29T00:40:41.282Z,13.74
2016-10-29T00:41:41.614Z,13.75
2016-10-29T00:42:41.318Z,13.72
2016-10-29T00:43:41.023Z,13.71
2016-10-29T00:44:41.363Z,13.75
2016-10-29T00:45:41.062Z,13.75
2016-10-29T00:46:41.758Z,13.75
2016-10-29T00:47:41.142Z,13.77
2016-10-29T00:48:41.464Z,13.83
2016-10-29T00:49:41.488Z,13.79
2016-10-29T00:50:41.163Z,13.81
2016-10-29T00:51:41.543Z,13.81
2016-10-29T00:52:41.519Z,13.83
2016-10-29T00:53:41.542Z,13.79
2016-10-29T00:54:41.558Z,13.85
2016-10-29T00:55:41.577Z,13.83
2016-10-29T00:56:41.953Z,13.85
2016-10-29T00:57:41.933Z,13.77
2016-10-29T00:58:41.954Z,13.86
2016-10-29T00:59:41.349Z,13.77
2016-10-29T01:00:41.676Z,13.85
2016-10-29T01:01:41.378Z,13.77
2016-10-29T01:02:41.717Z,13.78
2016-10-29T01:03:42.054Z,13.86
2016-10-29T01:04:41.440Z,13.81
2016-10-29T01:05:41.791Z,13.81
2016-10-29T01:06:42.110Z,13.79
2016-10-29T01:07:41.821Z,13.74
2016-10-29T01:08:41.837Z,13.85
2016-10-29T01:09:41.538Z,13.79
2016-10-29T01:10:41.560Z,13.86
2016-10-29T01:11:41.894Z,13.87
2016-10-29T01:12:41.975Z,13.86
2016-10-29T01:13:41.939Z,13.79
2016-10-29T01:14:42.270Z,13.81
2016-10-29T01:15:42.288Z,13.92
2016-10-29T01:16:41.992Z,13.87
2016-10-29T01:17:42.023Z,13.92
2016-10-29T01:18:41.763Z,13.93
2016-10-29T01:19:42.387Z,13.89
2016-10-29T01:20:41.766Z,13.9
2016-10-29T01:21:42.093Z,13.9
2016-10-29T01:22:41.811Z,13.86
2016-10-29T01:23:42.165Z,13.89
2016-10-29T01:24:41.838Z,13.92
2016-10-29T01:25:41.854Z,13.89
2016-10-29T01:26:41.879Z,13.85
2016-10-29T01:27:41.896Z,13.87
2016-10-29T01:28:41.915Z,13.89
2016-10-29T01:29:42.249Z,13.79
2016-10-29T01:30:42.270Z,13.81
2016-10-29T01:31:42.610Z,13.86
2016-10-29T01:32:41.991Z,13.86
2016-10-29T01:33:42.013Z,13.83
2016-10-29T01:34:42.668Z,13.75
2016-10-29T01:35:42.061Z,13.7
2016-10-29T01:36:42.072Z,13.78
2016-10-29T01:37:42.410Z,13.81
2016-10-29T01:38:42.110Z,13.9
2016-10-29T01:39:42.487Z,13.83
2016-10-29T01:40:42.471Z,13.87
2016-10-29T01:41:42.801Z,13.95
2016-10-29T01:42:42.505Z,13.86
2016-10-29T01:43:42.533Z,13.81
2016-10-29T01:44:42.230Z,13.83
2016-10-29T01:45:42.878Z,13.83
2016-10-29T01:46:42.299Z,13.85
2016-10-29T01:47:42.661Z,13.81
2016-10-29T01:48:42.628Z,13.87
2016-10-29T01:49:42.652Z,13.87
2016-10-29T01:50:42.984Z,13.89
2016-10-29T01:51:42.685Z,13.9
2016-10-29T01:52:42.706Z,13.85
2016-10-29T01:53:43.043Z,13.92
2016-10-29T01:54:42.749Z,13.83
2016-10-29T01:55:42.452Z,13.9
2016-10-29T01:56:42.477Z,13.83
2016-10-29T01:57:43.120Z,13.86
2016-10-29T01:58:42.824Z,13.86
2016-10-29T01:59:42.841Z,13.83
2016-10-29T02:00:42.858Z,13.81
2016-10-29T02:01:42.886Z,13.81
2016-10-29T02:02:42.590Z,13.85
2016-10-29T02:03:42.924Z,13.85
2016-10-29T02:04:42.629Z,13.9
2016-10-29T02:05:42.985Z,13.83
2016-10-29T02:07:43.004Z,13.87
2016-10-29T02:08:43.022Z,13.81
2016-10-29T02:09:42.726Z,13.86
2016-10-29T02:10:43.084Z,13.96
2016-10-29T02:11:43.085Z,13.86
2016-10-29T02:12:43.415Z,13.78
2016-10-29T02:13:43.137Z,13.83
2016-10-29T02:14:43.152Z,13.78
2016-10-29T02:15:43.475Z,13.79
2016-10-29T02:16:43.198Z,13.77
2016-10-29T02:17:42.889Z,13.87
2016-10-29T02:18:43.221Z,13.81
2016-10-29T02:19:43.241Z,13.86
2016-10-29T02:20:43.580Z,13.68
2016-10-29T02:21:43.287Z,13.78
2016-10-29T02:22:43.297Z,13.77
2016-10-29T02:23:43.002Z,13.83
2016-10-29T02:24:43.356Z,13.79
2016-10-29T02:25:43.363Z,13.81
2016-10-29T02:26:43.693Z,13.79
2016-10-29T02:27:43.750Z,13.75
2016-10-29T02:28:43.425Z,13.81
2016-10-29T02:29:43.437Z,13.79
2016-10-29T02:30:43.493Z,13.87
2016-10-29T02:31:43.196Z,13.75
2016-10-29T02:32:43.499Z,13.74
2016-10-29T02:33:43.203Z,13.77
2016-10-29T02:34:43.852Z,13.75
2016-10-29T02:35:43.564Z,13.68
2016-10-29T02:36:43.579Z,13.68
2016-10-29T02:37:43.318Z,13.67
2016-10-29T02:38:43.296Z,13.65
2016-10-29T02:39:43.635Z,13.68
2016-10-29T02:40:43.660Z,13.7
2016-10-29T02:41:43.393Z,13.71
2016-10-29T02:42:44.012Z,13.72
2016-10-29T02:43:43.715Z,13.72
2016-10-29T02:44:43.416Z,13.67
2016-10-29T02:45:43.749Z,13.67
2016-10-29T02:46:43.773Z,13.65
2016-10-29T02:47:43.842Z,13.67
2016-10-29T02:48:43.809Z,13.72
2016-10-29T02:49:43.826Z,13.7
2016-10-29T02:50:44.166Z,13.7
2016-10-29T02:51:43.867Z,13.72
2016-10-29T02:52:44.439Z,13.72
2016-10-29T02:53:43.589Z,13.65
2016-10-29T02:54:44.247Z,13.67
2016-10-29T02:55:44.258Z,13.72
2016-10-29T02:56:43.648Z,13.72
2016-10-29T02:57:44.309Z,13.67
2016-10-29T02:58:44.004Z,13.68
2016-10-29T02:59:44.021Z,13.68
2016-10-29T03:00:43.764Z,13.53
2016-10-29T03:01:44.062Z,13.59
2016-10-29T03:02:44.080Z,13.6
2016-10-29T03:03:44.105Z,13.59
2016-10-29T03:04:44.435Z,13.47
2016-10-29T03:05:43.828Z,13.57
2016-10-29T03:06:44.471Z,13.62
2016-10-29T03:07:43.865Z,13.56
2016-10-29T03:08:44.200Z,13.65
2016-10-29T03:09:44.219Z,13.71
2016-10-29T03:10:44.266Z,13.7
2016-10-29T03:11:44.258Z,13.6
2016-10-29T03:12:44.277Z,13.62
2016-10-29T03:13:43.979Z,13.72
2016-10-29T03:14:44.631Z,13.65
2016-10-29T03:15:44.338Z,13.71
2016-10-29T03:16:44.671Z,13.68
2016-10-29T03:17:44.695Z,13.71
2016-10-29T03:18:44.399Z,13.75
2016-10-29T03:19:44.414Z,13.75
2016-10-29T03:20:44.162Z,13.7
2016-10-29T03:21:44.768Z,13.81
2016-10-29T03:22:44.473Z,13.79
2016-10-29T03:23:44.805Z,13.74
2016-10-29T03:24:44.828Z,13.77
2016-10-29T03:25:44.850Z,13.75
2016-10-29T03:26:44.236Z,13.71
2016-10-29T03:27:44.574Z,13.67
2016-10-29T03:28:44.604Z,13.59
2016-10-29T03:29:44.923Z,13.56
2016-10-29T03:30:44.630Z,13.56
2016-10-29T03:31:44.335Z,13.59
2016-10-29T03:32:44.666Z,13.53
2016-10-29T03:33:45.004Z,13.42
2016-10-29T03:34:44.708Z,13.47
2016-10-29T03:35:44.726Z,13.37
2016-10-29T03:36:44.765Z,13.5
2016-10-29T03:37:44.764Z,13.52
2016-10-29T03:38:44.794Z,13.52
2016-10-29T03:39:44.821Z,13.54
2016-10-29T03:40:44.512Z,13.47
2016-10-29T03:41:44.537Z,13.59
2016-10-29T03:42:45.179Z,13.62
2016-10-29T03:43:44.567Z,13.56
2016-10-29T03:44:44.914Z,13.6
2016-10-29T03:46:44.624Z,13.6
2016-10-29T03:47:45.302Z,13.62
2016-10-29T03:48:44.669Z,13.65
2016-10-29T03:49:44.999Z,13.62
2016-10-29T03:50:45.350Z,13.62
2016-10-29T03:51:45.080Z,13.71
2016-10-29T03:52:45.059Z,13.7
2016-10-29T03:53:45.083Z,13.65
2016-10-29T03:54:45.102Z,13.7
2016-10-29T03:55:45.124Z,13.65
2016-10-29T03:56:44.820Z,13.65
2016-10-29T03:57:45.162Z,13.71
2016-10-29T03:58:45.568Z,13.67
2016-10-29T03:59:45.227Z,13.71
2016-10-29T04:00:45.238Z,13.7
2016-10-29T04:01:45.238Z,13.65
2016-10-29T04:02:44.934Z,13.6
2016-10-29T04:03:44.957Z,13.63
2016-10-29T04:04:45.604Z,13.63
2016-10-29T04:05:45.360Z,13.63
2016-10-29T04:06:45.657Z,13.68
2016-10-29T04:07:45.356Z,13.65
2016-10-29T04:08:45.779Z,13.65
2016-10-29T04:09:45.722Z,13.59
2016-10-29T04:10:45.095Z,13.57
2016-10-29T04:11:45.482Z,13.44
2016-10-29T04:12:45.444Z,13.38
2016-10-29T04:13:45.911Z,13.41
2016-10-29T04:14:45.500Z,13.47
2016-10-29T04:15:45.504Z,13.46
2016-10-29T04:16:45.531Z,13.54
2016-10-29T04:17:45.261Z,13.6
2016-10-29T04:18:45.934Z,13.6
2016-10-29T04:19:45.959Z,13.57
2016-10-29T04:20:45.918Z,13.7
2016-10-29T04:21:45.765Z,13.72
2016-10-29T04:22:45.642Z,13.59
2016-10-29T04:23:45.385Z,13.67
2016-10-29T04:24:45.689Z,13.68
2016-10-29T04:25:45.701Z,13.7
2016-10-29T04:27:45.422Z,13.71
2016-10-29T04:28:45.756Z,13.74
2016-10-29T04:29:45.462Z,13.65
2016-10-29T04:30:45.495Z,13.71
2016-10-29T04:31:45.820Z,13.78
2016-10-29T04:32:45.833Z,13.77
2016-10-29T04:33:45.871Z,13.77
2016-10-29T04:34:45.876Z,13.71
2016-10-29T04:35:46.011Z,13.72
2016-10-29T04:36:45.913Z,13.79
2016-10-29T04:37:45.932Z,13.74
2016-10-29T04:38:46.267Z,13.79
2016-10-29T04:39:46.321Z,13.74
2016-10-29T04:40:45.677Z,13.79
2016-10-29T04:42:00.638Z,13.78
2016-10-29T04:42:46.105Z,13.81
2016-10-29T04:43:46.161Z,13.85
2016-10-29T04:44:45.764Z,13.78
2016-10-29T04:45:46.106Z,13.81
2016-10-29T04:46:46.118Z,13.89
2016-10-29T04:47:45.810Z,13.83
2016-10-29T04:48:45.830Z,13.81
2016-10-29T04:49:46.234Z,13.79
2016-10-29T04:50:46.515Z,13.78
2016-10-29T04:51:45.915Z,13.85
2016-10-29T04:52:46.247Z,13.81
2016-10-29T04:53:46.308Z,13.89
2016-10-29T04:54:46.272Z,13.83
2016-10-29T04:55:46.344Z,13.89
2016-10-29T04:56:46.621Z,13.83
2016-10-29T04:57:46.647Z,13.83
2016-10-29T04:59:46.380Z,13.81
2016-10-29T05:00:46.074Z,13.79
2016-10-29T05:01:46.086Z,13.83
2016-10-29T05:02:46.115Z,13.79
2016-10-29T05:03:46.453Z,13.83
2016-10-29T05:04:46.135Z,13.77
2016-10-29T05:05:46.479Z,13.83
2016-10-29T05:06:46.203Z,13.92
2016-10-29T05:07:46.524Z,13.89
2016-10-29T05:08:46.855Z,13.89
2016-10-29T05:09:46.869Z,13.79
2016-10-29T05:10:46.595Z,13.77
2016-10-29T05:11:46.605Z,13.86
2016-10-29T05:12:46.610Z,13.78
2016-10-29T05:13:46.969Z,13.85
2016-10-29T05:14:46.348Z,13.79
2016-10-29T05:15:46.357Z,13.9
2016-10-29T05:16:46.685Z,13.79
2016-10-29T05:17:46.719Z,13.78
2016-10-29T05:18:47.041Z,13.86
2016-10-29T05:19:46.470Z,13.9
2016-10-29T05:20:46.768Z,13.79
2016-10-29T05:22:01.369Z,13.79
2016-10-29T05:22:46.811Z,13.72
2016-10-29T05:23:46.825Z,13.68
2016-10-29T05:24:46.848Z,13.77
2016-10-29T05:25:46.879Z,13.85
2016-10-29T05:26:46.887Z,13.86
2016-10-29T05:27:46.586Z,13.87
2016-10-29T05:28:46.957Z,13.77
2016-10-29T05:29:46.951Z,13.81
2016-10-29T05:30:46.960Z,13.77
2016-10-29T05:31:46.719Z,13.81
2016-10-29T05:32:46.686Z,13.74
2016-10-29T05:33:47.022Z,13.77
2016-10-29T05:34:46.726Z,13.67
2016-10-29T05:35:46.748Z,13.7
2016-10-29T05:36:47.139Z,13.65
2016-10-29T05:37:47.101Z,13.63
2016-10-29T05:38:46.807Z,13.68
2016-10-29T05:39:46.826Z,13.68
2016-10-29T05:40:47.476Z,13.67
2016-10-29T05:41:47.225Z,13.57
2016-10-29T05:42:46.935Z,13.62
2016-10-29T05:43:46.900Z,13.65
2016-10-29T05:44:47.237Z,13.67
2016-10-29T05:45:47.599Z,13.71
2016-10-29T05:46:47.598Z,13.65
2016-10-29T05:47:47.293Z,13.63
2016-10-29T05:48:47.311Z,13.68
2016-10-29T05:49:47.019Z,13.71
2016-10-29T05:50:47.041Z,13.7
2016-10-29T05:51:47.368Z,13.65
2016-10-29T05:52:47.400Z,13.62
2016-10-29T05:53:47.409Z,13.7
2016-10-29T05:54:47.115Z,13.65
2016-10-29T05:55:47.773Z,13.7
2016-10-29T05:56:47.466Z,13.68
2016-10-29T05:57:47.491Z,13.7
2016-10-29T05:58:47.200Z,13.7
2016-10-29T05:59:47.530Z,13.7
2016-10-29T06:00:47.555Z,13.6
2016-10-29T06:01:47.268Z,13.7
2016-10-29T06:02:47.615Z,13.71
2016-10-29T06:03:47.921Z,13.77
2016-10-29T06:04:47.309Z,13.68
2016-10-29T06:05:47.654Z,13.71
2016-10-29T06:06:47.666Z,13.71
2016-10-29T06:07:47.681Z,13.71
2016-10-29T06:08:48.015Z,13.74
2016-10-29T06:09:47.720Z,13.78
2016-10-29T06:10:47.741Z,13.75
2016-10-29T06:11:47.446Z,13.78
2016-10-29T06:12:47.780Z,13.7
2016-10-29T06:13:47.802Z,13.75
2016-10-29T06:14:47.820Z,13.77
2016-10-29T06:15:47.837Z,13.86
2016-10-29T06:16:47.549Z,13.77
2016-10-29T06:17:47.879Z,13.75
2016-10-29T06:18:47.618Z,13.79
2016-10-29T06:19:47.920Z,13.75
2016-10-29T06:20:47.619Z,13.83
2016-10-29T06:21:47.972Z,13.79
2016-10-29T06:22:47.982Z,13.77
2016-10-29T06:23:48.076Z,13.81
2016-10-29T06:24:48.015Z,13.79
2016-10-29T06:25:48.118Z,13.83
2016-10-29T06:26:48.071Z,13.79
2016-10-29T06:27:47.752Z,13.86
2016-10-29T06:28:48.086Z,13.81
2016-10-29T06:29:48.126Z,13.81
2016-10-29T06:30:48.444Z,13.78
2016-10-29T06:31:48.145Z,13.87
2016-10-29T06:32:48.484Z,13.79
2016-10-29T06:33:48.503Z,13.85
2016-10-29T06:34:47.933Z,13.81
2016-10-29T06:35:47.920Z,13.86
2016-10-29T06:36:48.246Z,13.81
2016-10-29T06:37:47.970Z,13.75
2016-10-29T06:38:48.295Z,13.92
2016-10-29T06:39:48.305Z,13.74
2016-10-29T06:40:48.660Z,13.9
2016-10-29T06:41:48.353Z,13.78
2016-10-29T06:42:48.364Z,13.78
2016-10-29T06:43:48.066Z,13.79
2016-10-29T06:44:48.411Z,13.86
2016-10-29T06:45:48.104Z,13.89
2016-10-29T06:46:48.752Z,13.89
2016-10-29T06:47:48.144Z,13.92
2016-10-29T06:48:48.900Z,13.89
2016-10-29T06:49:48.511Z,13.86
2016-10-29T06:50:48.250Z,13.85
2016-10-29T06:51:48.875Z,13.86
2016-10-29T06:52:48.247Z,13.81
2016-10-29T06:53:48.617Z,13.78
2016-10-29T06:54:48.595Z,13.87
2016-10-29T06:55:48.637Z,13.79
2016-10-29T06:56:48.658Z,13.79
2016-10-29T06:57:48.651Z,13.78
2016-10-29T06:58:48.360Z,13.81
2016-10-29T06:59:48.774Z,13.86
2016-10-29T07:00:48.776Z,13.87
2016-10-29T07:01:48.738Z,13.89
2016-10-29T07:02:48.762Z,13.87
2016-10-29T07:03:48.459Z,13.92
2016-10-29T07:04:48.793Z,13.97
2016-10-29T07:05:49.129Z,14.03
2016-10-29T07:06:48.519Z,13.92
2016-10-29T07:07:48.539Z,13.79
2016-10-29T07:08:48.877Z,13.89
2016-10-29T07:09:49.203Z,13.97
2016-10-29T07:10:48.912Z,14.07
2016-10-29T07:11:48.615Z,14.04
2016-10-29T07:12:48.960Z,14.07
2016-10-29T07:13:48.972Z,14.05
2016-10-29T07:14:48.990Z,14.1
2016-10-29T07:15:49.013Z,14.05
2016-10-29T07:16:49.028Z,14.12
2016-10-29T07:17:48.767Z,14.08
2016-10-29T07:18:49.077Z,14.07
2016-10-29T07:19:49.406Z,14.12
2016-10-29T07:20:49.112Z,14.15
2016-10-29T07:21:49.448Z,14.23
2016-10-29T07:22:49.153Z,14.2
2016-10-29T07:23:48.967Z,14.18
2016-10-29T07:24:49.195Z,14.2
2016-10-29T07:25:48.899Z,14.22
2016-10-29T07:26:49.228Z,14.29
2016-10-29T07:27:48.931Z,14.22
2016-10-29T07:28:48.953Z,14.18
2016-10-29T07:29:48.974Z,14.1
2016-10-29T07:30:49.624Z,14.15
2016-10-29T07:31:49.329Z,14.23
2016-10-29T07:32:49.347Z,14.12
2016-10-29T07:33:49.370Z,14.29
2016-10-29T07:34:49.707Z,14.2
2016-10-29T07:35:49.409Z,14.26
2016-10-29T07:36:49.435Z,14.33
2016-10-29T07:37:49.466Z,14.36
2016-10-29T07:38:49.480Z,14.28
2016-10-29T07:39:49.173Z,14.18
2016-10-29T07:40:49.187Z,14.3
2016-10-29T07:41:49.214Z,14.35
2016-10-29T07:42:49.679Z,14.35
2016-10-29T07:43:49.742Z,14.37
2016-10-29T07:44:49.668Z,14.37
2016-10-29T07:45:49.630Z,14.32
2016-10-29T07:46:49.639Z,14.36
2016-10-29T07:47:49.648Z,14.36
2016-10-29T07:48:50.001Z,14.36
2016-10-29T07:49:52.205Z,14.37
2016-10-29T07:50:51.726Z,14.33
2016-10-29T07:51:51.083Z,14.36
2016-10-29T07:52:52.225Z,14.33
2016-10-29T07:53:51.860Z,14.44
2016-10-29T07:54:52.115Z,14.47
2016-10-29T07:55:52.194Z,14.51
2016-10-29T07:56:51.911Z,14.48
2016-10-29T07:57:52.335Z,14.53
2016-10-29T07:58:51.784Z,14.37
2016-10-29T07:59:51.134Z,14.32
2016-10-29T08:00:51.931Z,14.32
2016-10-29T08:01:52.394Z,14.35
2016-10-29T08:02:51.268Z,14.33
2016-10-29T08:03:51.284Z,14.29
2016-10-29T08:04:49.988Z,14.36
2016-10-29T08:05:50.017Z,14.48
2016-10-29T08:06:49.716Z,14.41
2016-10-29T08:07:52.174Z,14.45
2016-10-29T08:08:50.063Z,14.47
2016-10-29T08:09:51.886Z,14.5
2016-10-29T08:10:52.600Z,14.47
2016-10-29T08:11:51.801Z,14.45
2016-10-29T08:12:51.420Z,14.43
2016-10-29T08:14:06.496Z,14.55
2016-10-29T08:14:52.331Z,14.48
2016-10-29T08:15:52.623Z,14.41
2016-10-29T08:16:52.800Z,14.5
2016-10-29T08:17:52.670Z,14.45
2016-10-29T08:18:51.613Z,14.4
2016-10-29T08:19:52.693Z,14.41
2016-10-29T08:20:52.654Z,14.44
2016-10-29T08:21:52.841Z,14.44
2016-10-29T08:22:52.505Z,14.48
2016-10-29T08:23:50.384Z,14.44
2016-10-29T08:24:50.389Z,14.48
2016-10-29T08:25:50.407Z,14.58
2016-10-29T08:26:50.745Z,14.59
2016-10-29T08:27:50.154Z,14.6
2016-10-29T08:28:50.783Z,14.58
2016-10-29T08:29:50.495Z,14.58
2016-10-29T08:30:50.192Z,14.63
2016-10-29T08:31:50.526Z,14.65
2016-10-29T08:32:50.586Z,14.59
2016-10-29T08:33:50.566Z,14.66
2016-10-29T08:34:51.020Z,14.59
2016-10-29T08:35:50.381Z,14.69
2016-10-29T08:36:50.942Z,14.7
2016-10-29T08:37:50.644Z,14.78
2016-10-29T08:38:50.383Z,14.84
2016-10-29T08:39:51.703Z,14.85
2016-10-29T08:40:50.725Z,14.89
2016-10-29T08:41:50.790Z,14.88
2016-10-29T08:42:50.755Z,14.88
2016-10-29T08:43:50.773Z,14.94
2016-10-29T08:44:50.879Z,14.86
2016-10-29T08:45:50.824Z,14.85
2016-10-29T08:46:50.520Z,14.81
2016-10-29T08:47:50.879Z,14.82
2016-10-29T08:48:51.999Z,14.89
2016-10-29T08:49:52.279Z,14.92
2016-10-29T08:50:52.945Z,14.99
2016-10-29T08:51:51.295Z,14.97
2016-10-29T08:52:52.626Z,14.89
2016-10-29T08:53:53.425Z,14.99
2016-10-29T08:54:51.442Z,14.96
2016-10-29T08:55:50.815Z,14.85
2016-10-29T08:56:51.041Z,14.85
2016-10-29T08:57:50.744Z,14.94
2016-10-29T08:58:52.742Z,14.82
2016-10-29T08:59:52.951Z,14.96
2016-10-29T09:00:53.094Z,14.85
2016-10-29T09:01:50.823Z,14.97
2016-10-29T09:02:50.848Z,15.06
2016-10-29T09:03:50.866Z,15.04
2016-10-29T09:04:51.519Z,15.06
2016-10-29T09:05:50.901Z,15.06
2016-10-29T09:06:52.894Z,15.04
2016-10-29T09:07:52.279Z,15.03
2016-10-29T09:08:53.747Z,15.07
2016-10-29T09:09:53.176Z,15.06
2016-10-29T09:10:51.317Z,15.06
2016-10-29T09:11:52.719Z,15
2016-10-29T09:12:51.713Z,14.94
2016-10-29T09:13:52.652Z,15
2016-10-29T09:14:51.905Z,15.07
2016-10-29T09:15:51.422Z,15.09
2016-10-29T09:16:51.440Z,15.03
2016-10-29T09:17:51.540Z,15.06
2016-10-29T09:18:51.169Z,15.07
2016-10-29T09:19:51.523Z,15.14
2016-10-29T09:20:51.209Z,15.19
2016-10-29T09:21:51.558Z,15.21
2016-10-29T09:22:51.557Z,15.25
2016-10-29T09:23:51.280Z,15.22
2016-10-29T09:24:51.605Z,15.24
2016-10-29T09:25:51.621Z,15.19
2016-10-29T09:26:51.959Z,15.27
2016-10-29T09:27:51.665Z,15.18
2016-10-29T09:28:52.002Z,15.18
2016-10-29T09:29:51.863Z,15.33
2016-10-29T09:30:51.721Z,15.31
2016-10-29T09:31:51.437Z,15.33
2016-10-29T09:32:51.538Z,15.31
2016-10-29T09:33:51.475Z,15.37
2016-10-29T09:34:51.495Z,15.4
2016-10-29T09:35:52.146Z,15.43
2016-10-29T09:36:51.851Z,15.31
2016-10-29T09:37:51.560Z,15.39
2016-10-29T09:38:52.210Z,15.31
2016-10-29T09:39:52.231Z,15.37
2016-10-29T09:40:51.972Z,15.42
2016-10-29T09:41:51.640Z,15.44
2016-10-29T09:42:51.975Z,15.4
2016-10-29T09:43:52.008Z,15.42
2016-10-29T09:44:52.330Z,15.46
2016-10-29T09:45:52.038Z,15.44
2016-10-29T09:46:52.377Z,15.52
2016-10-29T09:47:52.082Z,15.49
2016-10-29T09:48:52.102Z,15.55
2016-10-29T09:49:52.436Z,15.58
2016-10-29T09:50:52.142Z,15.49
2016-10-29T09:51:52.185Z,15.37
2016-10-29T09:52:52.182Z,15.37
2016-10-29T09:53:51.884Z,15.37
2016-10-29T09:54:52.643Z,15.35
2016-10-29T09:55:52.252Z,15.17
2016-10-29T09:56:52.265Z,15.29
2016-10-29T09:57:52.616Z,15.25
2016-10-29T09:58:52.309Z,15.33
2016-10-29T09:59:52.649Z,15.33
2016-10-29T10:00:52.354Z,15.42
2016-10-29T10:01:52.050Z,15.39
2016-10-29T10:02:52.076Z,15.39
2016-10-29T10:03:52.409Z,15.36
2016-10-29T10:04:52.114Z,15.36
2016-10-29T10:05:52.136Z,15.39
2016-10-29T10:06:52.787Z,15.39
2016-10-29T10:07:52.494Z,15.37
2016-10-29T10:08:52.203Z,15.35
2016-10-29T10:09:52.540Z,15.35
2016-10-29T10:10:52.556Z,15.51
2016-10-29T10:11:52.288Z,15.39
2016-10-29T10:12:52.598Z,15.46
2016-10-29T10:13:52.618Z,15.43
2016-10-29T10:14:52.643Z,15.4
2016-10-29T10:15:52.664Z,15.49
2016-10-29T10:16:52.683Z,15.35
2016-10-29T10:17:53.018Z,15.37
2016-10-29T10:18:53.046Z,15.39
2016-10-29T10:19:53.062Z,15.4
2016-10-29T10:20:52.764Z,15.49
2016-10-29T10:21:52.807Z,15.46
2016-10-29T10:22:53.127Z,15.42
2016-10-29T10:23:52.834Z,15.49
2016-10-29T10:24:52.865Z,15.55
2016-10-29T10:25:53.183Z,15.55
2016-10-29T10:26:52.582Z,15.49
2016-10-29T10:27:53.229Z,15.51
2016-10-29T10:28:52.623Z,15.49
2016-10-29T10:29:52.644Z,15.35
2016-10-29T10:30:53.288Z,15.36
2016-10-29T10:31:52.993Z,15.33
2016-10-29T10:32:52.704Z,15.35
2016-10-29T10:33:53.038Z,15.4
2016-10-29T10:34:52.783Z,15.37
2016-10-29T10:35:52.766Z,15.49
2016-10-29T10:36:53.416Z,15.42
2016-10-29T10:37:53.122Z,15.37
2016-10-29T10:38:52.830Z,15.36
2016-10-29T10:39:53.166Z,15.42
2016-10-29T10:40:52.874Z,15.46
2016-10-29T10:41:53.520Z,15.55
2016-10-29T10:42:52.911Z,15.4
2016-10-29T10:43:53.298Z,15.47
2016-10-29T10:44:52.957Z,15.37
2016-10-29T10:45:53.288Z,15.43
2016-10-29T10:46:53.625Z,15.37
2016-10-29T10:47:53.676Z,15.36
2016-10-29T10:48:53.407Z,15.28
2016-10-29T10:49:53.374Z,15.19
2016-10-29T10:50:53.392Z,15.29
2016-10-29T10:51:53.096Z,15.21
2016-10-29T10:52:53.121Z,15.24
2016-10-29T10:53:53.141Z,15.17
2016-10-29T10:54:53.161Z,15.19
2016-10-29T10:55:53.518Z,15.22
2016-10-29T10:56:53.558Z,15.19
2016-10-29T10:57:53.851Z,15.19
2016-10-29T10:58:53.894Z,15.09
2016-10-29T10:59:53.588Z,15.03
2016-10-29T11:00:53.605Z,15.02
2016-10-29T11:01:53.621Z,15.04
2016-10-29T11:02:53.647Z,15.06
2016-10-29T11:03:53.687Z,15.03
2016-10-29T11:04:53.684Z,15.02
2016-10-29T11:05:54.027Z,15.03
2016-10-29T11:06:53.412Z,15.11
2016-10-29T11:07:53.431Z,15.1
2016-10-29T11:08:53.456Z,15.1
2016-10-29T11:09:53.798Z,15.07
2016-10-29T11:10:53.818Z,15.19
2016-10-29T11:11:53.832Z,15.25
2016-10-29T11:12:53.852Z,15.18
2016-10-29T11:13:54.200Z,15.1
2016-10-29T11:14:53.576Z,15.11
2016-10-29T11:15:53.914Z,15.19
2016-10-29T11:16:53.619Z,15.14
2016-10-29T11:17:54.326Z,15.14
2016-10-29T11:18:53.981Z,15.1
2016-10-29T11:19:54.111Z,15.14
2016-10-29T11:20:54.026Z,15.04
2016-10-29T11:21:53.726Z,15.11
2016-10-29T11:22:53.751Z,15.17
2016-10-29T11:23:54.079Z,15.17
2016-10-29T11:24:54.414Z,15.07
2016-10-29T11:25:54.142Z,15.07
2016-10-29T11:26:54.459Z,15.06
2016-10-29T11:27:53.845Z,15.14
2016-10-29T11:28:54.186Z,15.09
2016-10-29T11:29:54.202Z,15.17
2016-10-29T11:30:53.909Z,15.1
2016-10-29T11:31:54.564Z,15.11
2016-10-29T11:32:53.987Z,15.1
2016-10-29T11:33:54.299Z,15.17
2016-10-29T11:34:54.308Z,15.17
2016-10-29T11:35:54.018Z,15.11
2016-10-29T11:36:54.348Z,15.04
2016-10-29T11:37:54.405Z,15.11
2016-10-29T11:38:54.703Z,15.15
2016-10-29T11:39:54.405Z,15.17
2016-10-29T11:40:54.446Z,15.21
2016-10-29T11:41:54.455Z,15.21
2016-10-29T11:42:54.790Z,15.24
2016-10-29T11:43:54.489Z,15.24
2016-10-29T11:44:54.516Z,15.15
2016-10-29T11:45:54.217Z,15.04
2016-10-29T11:46:54.239Z,15.11
2016-10-29T11:47:54.573Z,15.17
2016-10-29T11:48:54.286Z,15.11
2016-10-29T11:49:54.619Z,15.17
2016-10-29T11:50:54.843Z,15.17
2016-10-29T11:51:54.659Z,15.21
2016-10-29T11:52:54.363Z,15.15
2016-10-29T11:53:54.384Z,15.11
2016-10-29T11:54:54.722Z,15.21
2016-10-29T11:55:55.155Z,15.21
2016-10-29T11:56:54.771Z,15.19
2016-10-29T11:57:54.494Z,15.19
2016-10-29T11:58:55.120Z,15.21
2016-10-29T11:59:54.821Z,15.15
2016-10-29T12:00:54.865Z,15.22
2016-10-29T12:01:54.552Z,15.19
2016-10-29T12:02:54.889Z,15.19
2016-10-29T12:03:54.929Z,15.22
2016-10-29T12:04:54.616Z,15.21
2016-10-29T12:05:54.632Z,15.25
2016-10-29T12:06:54.657Z,15.33
2016-10-29T12:07:55.017Z,15.25
2016-10-29T12:08:55.023Z,15.39
2016-10-29T12:09:55.039Z,15.29
2016-10-29T12:10:55.054Z,15.22
2016-10-29T12:11:55.081Z,15.25
2016-10-29T12:12:55.104Z,15.24
2016-10-29T12:13:55.111Z,15.19
2016-10-29T12:14:54.820Z,15.21
2016-10-29T12:15:54.840Z,15.33
2016-10-29T12:16:55.177Z,15.28
2016-10-29T12:17:55.200Z,15.18
2016-10-29T12:18:54.906Z,15.21
2016-10-29T12:19:55.245Z,15.21
2016-10-29T12:20:55.578Z,15.18
2016-10-29T12:21:55.598Z,15.21
2016-10-29T12:22:55.307Z,15.21
2016-10-29T12:23:55.640Z,15.24
2016-10-29T12:24:55.033Z,15.17
2016-10-29T12:25:55.052Z,15.22
2016-10-29T12:26:55.703Z,15.28
2016-10-29T12:27:55.723Z,15.28
2016-10-29T12:28:55.430Z,15.28
2016-10-29T12:29:55.136Z,15.21
2016-10-29T12:30:55.791Z,15.24
2016-10-29T12:31:55.491Z,15.25
2016-10-29T12:32:55.196Z,15.33
2016-10-29T12:33:55.218Z,15.35
2016-10-29T12:34:55.557Z,15.36
2016-10-29T12:35:55.272Z,15.31
2016-10-29T12:36:55.591Z,15.31
2016-10-29T12:37:55.296Z,15.21
2016-10-29T12:38:55.361Z,15.19
2016-10-29T12:39:55.344Z,15.18
2016-10-29T12:40:56.043Z,15.17
2016-10-29T12:41:55.390Z,15.29
2016-10-29T12:42:56.046Z,15.27
2016-10-29T12:43:55.740Z,15.36
2016-10-29T12:44:55.762Z,15.43
2016-10-29T12:45:55.794Z,15.36
2016-10-29T12:46:55.804Z,15.18
2016-10-29T12:47:56.141Z,15.17
2016-10-29T12:48:56.181Z,15.11
2016-10-29T12:49:55.548Z,15.07
2016-10-29T12:50:55.568Z,15
2016-10-29T12:51:56.218Z,15.04
2016-10-29T12:52:55.930Z,15.04
2016-10-29T12:53:55.952Z,15.14
2016-10-29T12:54:55.968Z,15.07
2016-10-29T12:55:55.987Z,15.15
2016-10-29T12:56:55.698Z,15.09
2016-10-29T12:57:56.034Z,15.11
2016-10-29T12:58:55.734Z,15.03
2016-10-29T12:59:55.779Z,15.04